www.cux-wetter.de
Wetterdaten: Dienstag, 01.03.2011
Datum Zeit Temp. A. Feuchte A. Luftdruck Regen Wind Richtung Richtung Sonnenschein Solar Taupunkt Windchill Windben
01.03.2011 00:01 1,3 C 83 % 1031,5 hPa 0,0 l/m 0,1 km/h (0 Bft) NO 35 0 min 0 W/m -1,3 C 1,3 C 0,1 km/h (0 Bft)
01.03.2011 00:05 1,3 C 83 % 1031,5 hPa 0,0 l/m 0,1 km/h (0 Bft) NO 35 0 min 0 W/m -1,3 C 1,3 C 0,1 km/h (0 Bft)
01.03.2011 00:11 1,3 C 83 % 1031,5 hPa 0,0 l/m 5,0 km/h (1 Bft) NO 35 0 min 0 W/m -1,3 C 1,3 C 5,0 km/h (1 Bft)
01.03.2011 00:16 1,3 C 83 % 1031,5 hPa 0,0 l/m 0,0 km/h (0 Bft) N-NO 25 0 min 0 W/m -1,3 C 1,3 C 0,0 km/h (0 Bft)
01.03.2011 00:21 1,3 C 83 % 1031,5 hPa 0,0 l/m 0,9 km/h (0 Bft) N-NO 25 0 min 0 W/m -1,3 C 1,3 C 0,9 km/h (0 Bft)
01.03.2011 00:25 1,3 C 83 % 1031,5 hPa 0,0 l/m 0,4 km/h (0 Bft) N-NO 30 0 min 0 W/m -1,3 C 1,3 C 0,4 km/h (0 Bft)
01.03.2011 00:30 1,3 C 83 % 1031,5 hPa 0,0 l/m 4,6 km/h (1 Bft) O-NO 65 0 min 0 W/m -1,3 C 1,3 C 4,6 km/h (1 Bft)
01.03.2011 00:35 1,4 C 83 % 1031,5 hPa 0,0 l/m 0,0 km/h (0 Bft) O-NO 60 0 min 0 W/m -1,2 C 1,4 C 0,0 km/h (0 Bft)
01.03.2011 00:40 1,4 C 83 % 1031,5 hPa 0,0 l/m 1,3 km/h (1 Bft) O-NO 60 0 min 0 W/m -1,2 C 1,4 C 1,3 km/h (1 Bft)
01.03.2011 00:45 1,4 C 83 % 1031,5 hPa 0,0 l/m 7,4 km/h (2 Bft) O-NO 60 0 min 0 W/m -1,2 C 0,4 C 7,4 km/h (2 Bft)
01.03.2011 00:50 1,4 C 83 % 1031,5 hPa 0,0 l/m 4,9 km/h (1 Bft) NO 50 0 min 0 W/m -1,2 C 1,4 C 4,9 km/h (1 Bft)
01.03.2011 00:56 1,4 C 83 % 1032,5 hPa 0,0 l/m 2,2 km/h (1 Bft) NO 45 0 min 0 W/m -1,2 C 1,4 C 2,2 km/h (1 Bft)
01.03.2011 01:01 1,4 C 83 % 1032,5 hPa 0,0 l/m 2,6 km/h (1 Bft) NO 45 0 min 0 W/m -1,2 C 1,4 C 2,6 km/h (1 Bft)
01.03.2011 01:05 1,4 C 83 % 1032,5 hPa 0,0 l/m 1,0 km/h (0 Bft) O-NO 65 0 min 0 W/m -1,2 C 1,4 C 1,0 km/h (0 Bft)
01.03.2011 01:10 1,4 C 83 % 1032,5 hPa 0,0 l/m 1,0 km/h (0 Bft) O-NO 60 0 min 0 W/m -1,2 C 1,4 C 1,0 km/h (0 Bft)
01.03.2011 01:15 1,4 C 83 % 1032,5 hPa 0,0 l/m 1,3 km/h (1 Bft) NO 40 0 min 0 W/m -1,2 C 1,4 C 1,3 km/h (1 Bft)
01.03.2011 01:20 1,3 C 83 % 1032,5 hPa 0,0 l/m 9,2 km/h (2 Bft) N-NO 25 0 min 0 W/m -1,3 C -1,4 C 9,2 km/h (2 Bft)
01.03.2011 01:25 1,3 C 83 % 1032,5 hPa 0,0 l/m 0,6 km/h (0 Bft) N-NO 25 0 min 0 W/m -1,3 C 1,3 C 0,6 km/h (0 Bft)
01.03.2011 01:31 1,3 C 83 % 1032,5 hPa 0,0 l/m 0,9 km/h (0 Bft) NO 35 0 min 0 W/m -1,3 C 1,3 C 0,9 km/h (0 Bft)
01.03.2011 01:36 1,3 C 83 % 1032,5 hPa 0,0 l/m 0,8 km/h (0 Bft) N-NO 20 0 min 0 W/m -1,3 C 1,3 C 0,8 km/h (0 Bft)
01.03.2011 01:41 1,2 C 83 % 1032,5 hPa 0,0 l/m 1,6 km/h (1 Bft) NO 50 0 min 0 W/m -1,4 C 1,2 C 1,6 km/h (1 Bft)
01.03.2011 01:45 1,2 C 84 % 1032,5 hPa 0,0 l/m 6,1 km/h (2 Bft) O-NO 70 0 min 0 W/m -1,2 C 1,2 C 6,1 km/h (2 Bft)
01.03.2011 01:50 1,3 C 84 % 1032,5 hPa 0,0 l/m 1,3 km/h (1 Bft) O-NO 70 0 min 0 W/m -1,1 C 1,3 C 1,3 km/h (1 Bft)
01.03.2011 01:55 1,2 C 84 % 1032,5 hPa 0,0 l/m 5,0 km/h (1 Bft) NO 50 0 min 0 W/m -1,2 C 1,2 C 5,0 km/h (1 Bft)
01.03.2011 02:00 1,3 C 84 % 1032,5 hPa 0,0 l/m 2,7 km/h (1 Bft) NO 45 0 min 0 W/m -1,1 C 1,3 C 2,7 km/h (1 Bft)
01.03.2011 02:06 1,2 C 84 % 1032,5 hPa 0,0 l/m 2,2 km/h (1 Bft) NO 40 0 min 0 W/m -1,2 C 1,2 C 2,2 km/h (1 Bft)
01.03.2011 02:11 1,2 C 84 % 1032,5 hPa 0,0 l/m 1,1 km/h (1 Bft) NO 35 0 min 0 W/m -1,2 C 1,2 C 1,1 km/h (1 Bft)
01.03.2011 02:16 1,2 C 84 % 1032,5 hPa 0,0 l/m 4,6 km/h (1 Bft) N-NO 30 0 min 0 W/m -1,2 C 1,2 C 4,6 km/h (1 Bft)
01.03.2011 02:21 1,3 C 84 % 1032,5 hPa 0,0 l/m 2,5 km/h (1 Bft) NO 35 0 min 0 W/m -1,1 C 1,3 C 2,5 km/h (1 Bft)
01.03.2011 02:25 1,3 C 84 % 1032,5 hPa 0,0 l/m 3,0 km/h (1 Bft) NO 35 0 min 0 W/m -1,1 C 1,3 C 3,0 km/h (1 Bft)
01.03.2011 02:30 1,2 C 84 % 1032,5 hPa 0,0 l/m 3,0 km/h (1 Bft) NO 35 0 min 0 W/m -1,2 C 1,2 C 3,0 km/h (1 Bft)
01.03.2011 02:35 1,3 C 84 % 1032,5 hPa 0,0 l/m 3,9 km/h (1 Bft) NO 55 0 min 0 W/m -1,1 C 1,3 C 3,9 km/h (1 Bft)
01.03.2011 02:40 1,2 C 84 % 1032,5 hPa 0,0 l/m 5,8 km/h (2 Bft) NO 55 0 min 0 W/m -1,2 C 1,2 C 5,8 km/h (2 Bft)
01.03.2011 02:45 1,2 C 84 % 1032,5 hPa 0,0 l/m 2,4 km/h (1 Bft) NO 55 0 min 0 W/m -1,2 C 1,2 C 2,4 km/h (1 Bft)
01.03.2011 02:50 1,3 C 84 % 1032,5 hPa 0,0 l/m 6,3 km/h (2 Bft) NO 50 0 min 0 W/m -1,1 C 1,3 C 6,3 km/h (2 Bft)
01.03.2011 02:56 1,2 C 84 % 1032,5 hPa 0,0 l/m 5,8 km/h (2 Bft) NO 50 0 min 0 W/m -1,2 C 1,2 C 5,8 km/h (2 Bft)
01.03.2011 03:01 1,2 C 84 % 1032,5 hPa 0,0 l/m 2,8 km/h (1 Bft) NO 40 0 min 0 W/m -1,2 C 1,2 C 2,8 km/h (1 Bft)
01.03.2011 03:05 1,2 C 84 % 1032,5 hPa 0,0 l/m 7,6 km/h (2 Bft) NO 55 0 min 0 W/m -1,2 C -0,0 C 7,6 km/h (2 Bft)
01.03.2011 03:10 1,2 C 84 % 1032,5 hPa 0,0 l/m 1,1 km/h (1 Bft) O 85 0 min 0 W/m -1,2 C 1,2 C 1,1 km/h (1 Bft)
01.03.2011 03:15 1,2 C 84 % 1032,5 hPa 0,0 l/m 4,8 km/h (1 Bft) NO 55 0 min 0 W/m -1,2 C 1,2 C 4,8 km/h (1 Bft)
01.03.2011 03:20 1,2 C 84 % 1032,5 hPa 0,0 l/m 0,8 km/h (0 Bft) NO 50 0 min 0 W/m -1,2 C 1,2 C 0,8 km/h (0 Bft)
01.03.2011 03:25 1,3 C 84 % 1032,5 hPa 0,0 l/m 0,3 km/h (0 Bft) NO 55 0 min 0 W/m -1,1 C 1,3 C 0,3 km/h (0 Bft)
01.03.2011 03:31 1,3 C 84 % 1032,5 hPa 0,0 l/m 5,7 km/h (2 Bft) NO 55 0 min 0 W/m -1,1 C 1,3 C 5,7 km/h (2 Bft)
01.03.2011 03:36 1,3 C 84 % 1032,5 hPa 0,0 l/m 5,2 km/h (1 Bft) NO 55 0 min 0 W/m -1,1 C 1,3 C 5,2 km/h (1 Bft)
01.03.2011 03:41 1,2 C 84 % 1032,5 hPa 0,0 l/m 1,6 km/h (1 Bft) NO 50 0 min 0 W/m -1,2 C 1,2 C 1,6 km/h (1 Bft)
01.03.2011 03:45 1,2 C 84 % 1032,5 hPa 0,0 l/m 6,1 km/h (2 Bft) O-NO 75 0 min 0 W/m -1,2 C 1,2 C 6,1 km/h (2 Bft)
01.03.2011 03:50 1,2 C 84 % 1032,5 hPa 0,0 l/m 3,7 km/h (1 Bft) O-NO 70 0 min 0 W/m -1,2 C 1,2 C 3,7 km/h (1 Bft)
01.03.2011 03:55 1,2 C 84 % 1032,5 hPa 0,0 l/m 7,2 km/h (2 Bft) O-NO 60 0 min 0 W/m -1,2 C 0,4 C 7,2 km/h (2 Bft)
01.03.2011 04:00 1,2 C 84 % 1032,5 hPa 0,0 l/m 0,3 km/h (0 Bft) O-NO 65 0 min 0 W/m -1,2 C 1,2 C 0,3 km/h (0 Bft)
01.03.2011 04:06 1,2 C 84 % 1032,5 hPa 0,0 l/m 1,3 km/h (1 Bft) O-NO 70 0 min 0 W/m -1,2 C 1,2 C 1,3 km/h (1 Bft)
01.03.2011 04:11 1,2 C 84 % 1032,5 hPa 0,0 l/m 6,0 km/h (2 Bft) NO 45 0 min 0 W/m -1,2 C 1,2 C 6,0 km/h (2 Bft)
01.03.2011 04:15 1,2 C 84 % 1032,5 hPa 0,0 l/m 4,5 km/h (1 Bft) NO 45 0 min 0 W/m -1,2 C 1,2 C 4,5 km/h (1 Bft)
01.03.2011 04:20 1,2 C 84 % 1032,5 hPa 0,0 l/m 10,6 km/h (2 Bft) O-NO 65 0 min 0 W/m -1,2 C -2,6 C 10,6 km/h (2 Bft)
01.03.2011 04:25 1,2 C 85 % 1032,5 hPa 0,0 l/m 8,5 km/h (2 Bft) O 80 0 min 0 W/m -1,0 C -0,8 C 8,5 km/h (2 Bft)
01.03.2011 04:30 1,2 C 85 % 1032,5 hPa 0,0 l/m 13,0 km/h (3 Bft) O 80 0 min 0 W/m -1,0 C -4,3 C 13,0 km/h (3 Bft)
01.03.2011 04:35 1,2 C 85 % 1032,5 hPa 0,0 l/m 7,3 km/h (2 Bft) O-NO 60 0 min 0 W/m -1,0 C 0,3 C 7,3 km/h (2 Bft)
01.03.2011 04:41 1,2 C 85 % 1032,5 hPa 0,0 l/m 2,6 km/h (1 Bft) O-NO 75 0 min 0 W/m -1,0 C 1,2 C 2,6 km/h (1 Bft)
01.03.2011 04:46 1,2 C 85 % 1032,5 hPa 0,0 l/m 1,9 km/h (1 Bft) O-NO 60 0 min 0 W/m -1,0 C 1,2 C 1,9 km/h (1 Bft)
01.03.2011 04:51 1,2 C 85 % 1032,5 hPa 0,0 l/m 1,1 km/h (1 Bft) NO 45 0 min 0 W/m -1,0 C 1,2 C 1,1 km/h (1 Bft)
01.03.2011 04:55 1,3 C 85 % 1032,5 hPa 0,0 l/m 5,9 km/h (2 Bft) O-NO 60 0 min 0 W/m -0,9 C 1,3 C 5,9 km/h (2 Bft)
01.03.2011 05:00 1,3 C 85 % 1032,5 hPa 0,0 l/m 6,8 km/h (2 Bft) O-NO 75 0 min 0 W/m -0,9 C 0,9 C 6,8 km/h (2 Bft)
01.03.2011 05:05 1,3 C 85 % 1032,5 hPa 0,0 l/m 7,4 km/h (2 Bft) O-NO 60 0 min 0 W/m -0,9 C 0,3 C 7,4 km/h (2 Bft)
01.03.2011 05:10 1,2 C 85 % 1032,5 hPa 0,0 l/m 0,0 km/h (0 Bft) O-NO 70 0 min 0 W/m -1,0 C 1,2 C 0,0 km/h (0 Bft)
01.03.2011 05:16 1,3 C 85 % 1033,5 hPa 0,0 l/m 0,1 km/h (0 Bft) O-NO 70 0 min 0 W/m -0,9 C 1,3 C 0,1 km/h (0 Bft)
01.03.2011 05:21 1,3 C 85 % 1032,5 hPa 0,0 l/m 5,6 km/h (2 Bft) O-NO 70 0 min 0 W/m -0,9 C 1,3 C 5,6 km/h (2 Bft)
01.03.2011 05:26 1,3 C 85 % 1033,5 hPa 0,0 l/m 7,9 km/h (2 Bft) O 85 0 min 0 W/m -0,9 C -0,2 C 7,9 km/h (2 Bft)
01.03.2011 05:30 1,3 C 85 % 1033,5 hPa 0,0 l/m 6,0 km/h (2 Bft) O 80 0 min 0 W/m -0,9 C 1,3 C 6,0 km/h (2 Bft)
01.03.2011 05:35 1,3 C 85 % 1033,5 hPa 0,0 l/m 0,4 km/h (0 Bft) O-NO 60 0 min 0 W/m -0,9 C 1,3 C 0,4 km/h (0 Bft)
01.03.2011 05:40 1,3 C 85 % 1033,5 hPa 0,0 l/m 5,9 km/h (2 Bft) O 85 0 min 0 W/m -0,9 C 1,3 C 5,9 km/h (2 Bft)
01.03.2011 05:45 1,3 C 85 % 1033,5 hPa 0,0 l/m 6,5 km/h (2 Bft) O-NO 70 0 min 0 W/m -0,9 C 1,2 C 6,5 km/h (2 Bft)
01.03.2011 05:50 1,2 C 85 % 1033,5 hPa 0,0 l/m 8,3 km/h (2 Bft) O 90 0 min 0 W/m -1,0 C -0,7 C 8,3 km/h (2 Bft)
01.03.2011 05:56 1,2 C 85 % 1033,5 hPa 0,0 l/m 4,5 km/h (1 Bft) O 90 0 min 0 W/m -1,0 C 1,2 C 4,5 km/h (1 Bft)
01.03.2011 06:01 1,2 C 85 % 1033,5 hPa 0,0 l/m 0,4 km/h (0 Bft) O 90 0 min 0 W/m -1,0 C 1,2 C 0,4 km/h (0 Bft)
01.03.2011 06:05 1,2 C 85 % 1033,5 hPa 0,0 l/m 0,3 km/h (0 Bft) O 90 0 min 0 W/m -1,0 C 1,2 C 0,3 km/h (0 Bft)
01.03.2011 06:10 1,2 C 85 % 1033,5 hPa 0,0 l/m 0,9 km/h (0 Bft) O 80 0 min 0 W/m -1,0 C 1,2 C 0,9 km/h (0 Bft)
01.03.2011 06:15 1,2 C 85 % 1033,5 hPa 0,0 l/m 7,8 km/h (2 Bft) O-NO 75 0 min 0 W/m -1,0 C -0,2 C 7,8 km/h (2 Bft)
01.03.2011 06:20 1,2 C 85 % 1033,5 hPa 0,0 l/m 0,2 km/h (0 Bft) NO 55 0 min 0 W/m -1,0 C 1,2 C 0,2 km/h (0 Bft)
01.03.2011 06:26 1,2 C 85 % 1033,5 hPa 0,0 l/m 0,3 km/h (0 Bft) NO 55 0 min 0 W/m -1,0 C 1,2 C 0,3 km/h (0 Bft)
01.03.2011 06:31 1,2 C 85 % 1033,5 hPa 0,0 l/m 0,1 km/h (0 Bft) NO 55 0 min 0 W/m -1,0 C 1,2 C 0,1 km/h (0 Bft)
01.03.2011 06:35 1,2 C 85 % 1033,5 hPa 0,0 l/m 0,3 km/h (0 Bft) NO 55 0 min 0 W/m -1,0 C 1,2 C 0,3 km/h (0 Bft)
01.03.2011 06:40 1,2 C 85 % 1033,5 hPa 0,0 l/m 4,3 km/h (1 Bft) O-NO 70 0 min 0 W/m -1,0 C 1,2 C 4,3 km/h (1 Bft)
01.03.2011 06:45 1,2 C 85 % 1033,5 hPa 0,0 l/m 4,6 km/h (1 Bft) O-NO 70 0 min 0 W/m -1,0 C 1,2 C 4,6 km/h (1 Bft)
01.03.2011 06:50 1,2 C 85 % 1033,5 hPa 0,0 l/m 4,7 km/h (1 Bft) O-NO 65 0 min 0 W/m -1,0 C 1,2 C 4,7 km/h (1 Bft)
01.03.2011 06:55 1,2 C 85 % 1033,5 hPa 0,0 l/m 0,2 km/h (0 Bft) O-NO 60 0 min 0 W/m -1,0 C 1,2 C 0,2 km/h (0 Bft)
01.03.2011 07:01 1,2 C 85 % 1033,5 hPa 0,0 l/m 3,5 km/h (1 Bft) O-NO 60 0 min 0 W/m -1,0 C 1,2 C 3,5 km/h (1 Bft)
01.03.2011 07:06 1,2 C 85 % 1033,5 hPa 0,0 l/m 0,2 km/h (0 Bft) O-NO 60 0 min 0 W/m -1,0 C 1,2 C 0,2 km/h (0 Bft)
01.03.2011 07:10 1,2 C 85 % 1034,5 hPa 0,0 l/m 0,6 km/h (0 Bft) O-NO 60 0 min 0 W/m -1,0 C 1,2 C 0,6 km/h (0 Bft)
01.03.2011 07:15 1,2 C 86 % 1034,5 hPa 0,0 l/m 0,6 km/h (0 Bft) O-NO 60 0 min 0 W/m -0,9 C 1,2 C 0,6 km/h (0 Bft)
01.03.2011 07:20 1,2 C 86 % 1034,5 hPa 0,0 l/m 5,7 km/h (2 Bft) NO 55 0 min 0 W/m -0,9 C 1,2 C 5,7 km/h (2 Bft)
01.03.2011 07:25 1,2 C 86 % 1034,5 hPa 0,0 l/m 0,2 km/h (0 Bft) NO 55 0 min 0 W/m -0,9 C 1,2 C 0,2 km/h (0 Bft)
01.03.2011 07:31 1,2 C 86 % 1034,5 hPa 0,0 l/m 0,4 km/h (0 Bft) NO 55 0 min 0 W/m -0,9 C 1,2 C 0,4 km/h (0 Bft)
01.03.2011 07:36 1,2 C 86 % 1034,5 hPa 0,0 l/m 3,3 km/h (1 Bft) NO 50 0 min 0 W/m -0,9 C 1,2 C 3,3 km/h (1 Bft)
01.03.2011 07:41 1,2 C 86 % 1034,5 hPa 0,0 l/m 7,0 km/h (2 Bft) NO 45 0 min 0 W/m -0,9 C 0,6 C 7,0 km/h (2 Bft)
01.03.2011 07:45 1,3 C 86 % 1034,5 hPa 0,0 l/m 1,0 km/h (0 Bft) O 80 0 min 0 W/m -0,8 C 1,3 C 1,0 km/h (0 Bft)
01.03.2011 07:50 1,2 C 86 % 1034,5 hPa 0,0 l/m 1,2 km/h (1 Bft) NO 55 0 min 0 W/m -0,9 C 1,2 C 1,2 km/h (1 Bft)
01.03.2011 07:55 1,3 C 86 % 1034,5 hPa 0,0 l/m 6,3 km/h (2 Bft) O-NO 60 0 min 0 W/m -0,8 C 1,3 C 6,3 km/h (2 Bft)
01.03.2011 08:00 1,3 C 86 % 1034,5 hPa 0,0 l/m 8,1 km/h (2 Bft) O-NO 65 0 min 0 W/m -0,8 C -0,4 C 8,1 km/h (2 Bft)
01.03.2011 08:06 1,2 C 86 % 1035,5 hPa 0,0 l/m 2,8 km/h (1 Bft) O-NO 65 0 min 0 W/m -0,9 C 1,2 C 2,8 km/h (1 Bft)
01.03.2011 08:10 1,2 C 86 % 1035,5 hPa 0,0 l/m 7,7 km/h (2 Bft) NO 50 0 min 0 W/m -0,9 C -0,1 C 7,7 km/h (2 Bft)
01.03.2011 08:15 1,3 C 86 % 1035,5 hPa 0,0 l/m 0,8 km/h (0 Bft) NO 40 0 min 0 W/m -0,8 C 1,3 C 0,8 km/h (0 Bft)
01.03.2011 08:20 1,2 C 86 % 1035,5 hPa 0,0 l/m 8,1 km/h (2 Bft) NO 35 0 min 0 W/m -0,9 C -0,5 C 8,1 km/h (2 Bft)
01.03.2011 08:25 1,2 C 86 % 1035,5 hPa 0,0 l/m 6,9 km/h (2 Bft) O-NO 60 0 min 0 W/m -0,9 C 0,7 C 6,9 km/h (2 Bft)
01.03.2011 08:30 1,2 C 86 % 1035,5 hPa 0,0 l/m 10,1 km/h (2 Bft) O-NO 60 0 min 0 W/m -0,9 C -2,2 C 10,1 km/h (2 Bft)
01.03.2011 08:35 1,2 C 86 % 1035,5 hPa 0,0 l/m 7,9 km/h (2 Bft) O-NO 60 0 min 0 W/m -0,9 C -0,3 C 7,9 km/h (2 Bft)
01.03.2011 08:41 1,2 C 86 % 1035,5 hPa 0,0 l/m 5,6 km/h (2 Bft) NO 50 0 min 0 W/m -0,9 C 1,2 C 5,6 km/h (2 Bft)
01.03.2011 08:46 1,3 C 86 % 1035,5 hPa 0,0 l/m 5,6 km/h (2 Bft) NO 55 0 min 0 W/m -0,8 C 1,3 C 5,6 km/h (2 Bft)
01.03.2011 08:50 1,3 C 86 % 1035,5 hPa 0,0 l/m 5,6 km/h (2 Bft) O-NO 70 0 min 0 W/m -0,8 C 1,3 C 5,6 km/h (2 Bft)
01.03.2011 08:55 1,4 C 86 % 1035,5 hPa 0,0 l/m 5,9 km/h (2 Bft) O-NO 65 0 min 0 W/m -0,7 C 1,4 C 5,9 km/h (2 Bft)
01.03.2011 09:00 1,5 C 86 % 1035,5 hPa 0,0 l/m 4,7 km/h (1 Bft) NO 35 0 min 0 W/m -0,6 C 1,5 C 4,7 km/h (1 Bft)
01.03.2011 09:06 1,5 C 86 % 1035,5 hPa 0,0 l/m 2,7 km/h (1 Bft) NO 45 0 min 0 W/m -0,6 C 1,5 C 2,7 km/h (1 Bft)
01.03.2011 09:11 1,5 C 86 % 1035,5 hPa 0,0 l/m 5,2 km/h (1 Bft) N-NO 20 0 min 0 W/m -0,6 C 1,5 C 5,2 km/h (1 Bft)
01.03.2011 09:16 1,5 C 86 % 1035,5 hPa 0,0 l/m 8,9 km/h (2 Bft) NO 55 0 min 0 W/m -0,6 C -0,9 C 8,9 km/h (2 Bft)
01.03.2011 09:20 1,4 C 85 % 1035,5 hPa 0,0 l/m 6,9 km/h (2 Bft) O-NO 70 0 min 0 W/m -0,8 C 0,9 C 6,9 km/h (2 Bft)
01.03.2011 09:25 1,4 C 85 % 1035,5 hPa 0,0 l/m 0,7 km/h (0 Bft) NO 50 0 min 0 W/m -0,8 C 1,4 C 0,7 km/h (0 Bft)
01.03.2011 09:30 1,5 C 85 % 1035,5 hPa 0,0 l/m 2,2 km/h (1 Bft) O 80 0 min 0 W/m -0,7 C 1,5 C 2,2 km/h (1 Bft)
01.03.2011 09:35 1,5 C 85 % 1035,5 hPa 0,0 l/m 4,6 km/h (1 Bft) NO 55 0 min 0 W/m -0,7 C 1,5 C 4,6 km/h (1 Bft)
01.03.2011 09:41 1,4 C 85 % 1035,5 hPa 0,0 l/m 4,2 km/h (1 Bft) O-NO 60 0 min 0 W/m -0,8 C 1,4 C 4,2 km/h (1 Bft)
01.03.2011 09:46 1,4 C 85 % 1035,5 hPa 0,0 l/m 11,0 km/h (2 Bft) O-SO 110 0 min 0 W/m -0,8 C -2,7 C 11,0 km/h (2 Bft)
01.03.2011 09:51 1,5 C 85 % 1035,5 hPa 0,0 l/m 6,1 km/h (2 Bft) O 95 0 min 0 W/m -0,7 C 1,5 C 6,1 km/h (2 Bft)
01.03.2011 09:55 1,5 C 85 % 1035,5 hPa 0,0 l/m 14,1 km/h (3 Bft) O-NO 75 0 min 0 W/m -0,7 C -4,6 C 14,1 km/h (3 Bft)
01.03.2011 10:00 1,5 C 85 % 1035,5 hPa 0,0 l/m 8,7 km/h (2 Bft) O-NO 60 0 min 0 W/m -0,7 C -0,7 C 8,7 km/h (2 Bft)
01.03.2011 10:06 1,4 C 85 % 1035,5 hPa 0,0 l/m 12,3 km/h (2 Bft) O 100 0 min 0 W/m -0,8 C -3,6 C 12,3 km/h (2 Bft)
01.03.2011 10:11 1,4 C 85 % 1035,5 hPa 0,0 l/m 11,5 km/h (2 Bft) O 80 0 min 0 W/m -0,8 C -3,0 C 11,5 km/h (2 Bft)
01.03.2011 10:16 1,4 C 85 % 1035,5 hPa 0,0 l/m 9,2 km/h (2 Bft) O-SO 110 0 min 0 W/m -0,8 C -1,2 C 9,2 km/h (2 Bft)
01.03.2011 10:20 1,5 C 85 % 1035,5 hPa 0,0 l/m 9,2 km/h (2 Bft) O-SO 120 0 min 0 W/m -0,7 C -1,1 C 9,2 km/h (2 Bft)
01.03.2011 10:25 1,6 C 85 % 1035,5 hPa 0,0 l/m 9,2 km/h (2 Bft) O-SO 115 0 min 0 W/m -0,6 C -1,0 C 9,2 km/h (2 Bft)
01.03.2011 10:30 1,7 C 85 % 1035,5 hPa 0,0 l/m 7,0 km/h (2 Bft) O 90 0 min 0 W/m -0,5 C 1,1 C 7,0 km/h (2 Bft)
01.03.2011 10:35 1,7 C 85 % 1035,5 hPa 0,0 l/m 9,2 km/h (2 Bft) O-NO 75 0 min 0 W/m -0,5 C -0,9 C 9,2 km/h (2 Bft)
01.03.2011 10:41 1,6 C 84 % 1035,5 hPa 0,0 l/m 6,8 km/h (2 Bft) O 80 0 min 0 W/m -0,8 C 1,2 C 6,8 km/h (2 Bft)
01.03.2011 10:46 1,6 C 84 % 1036,5 hPa 0,0 l/m 7,6 km/h (2 Bft) O-NO 60 0 min 0 W/m -0,8 C 0,4 C 7,6 km/h (2 Bft)
01.03.2011 10:51 1,6 C 85 % 1036,5 hPa 0,0 l/m 1,1 km/h (1 Bft) N-NO 25 0 min 0 W/m -0,6 C 1,6 C 1,1 km/h (1 Bft)
01.03.2011 10:55 1,7 C 85 % 1036,5 hPa 0,0 l/m 3,3 km/h (1 Bft) O-NO 60 0 min 0 W/m -0,5 C 1,7 C 3,3 km/h (1 Bft)
01.03.2011 11:00 1,6 C 84 % 1036,5 hPa 0,0 l/m 11,4 km/h (2 Bft) O-NO 60 0 min 0 W/m -0,8 C -2,7 C 11,4 km/h (2 Bft)
01.03.2011 11:06 1,7 C 85 % 1036,5 hPa 0,0 l/m 5,4 km/h (2 Bft) NO 35 0 min 0 W/m -0,5 C 1,7 C 5,4 km/h (2 Bft)
01.03.2011 11:11 1,8 C 85 % 1036,5 hPa 0,0 l/m 5,5 km/h (2 Bft) O-NO 60 0 min 0 W/m -0,4 C 1,8 C 5,5 km/h (2 Bft)
01.03.2011 11:15 1,7 C 85 % 1036,5 hPa 0,0 l/m 4,5 km/h (1 Bft) NO 55 0 min 0 W/m -0,5 C 1,7 C 4,5 km/h (1 Bft)
01.03.2011 11:20 1,8 C 85 % 1036,5 hPa 0,0 l/m 7,0 km/h (2 Bft) NO 50 0 min 0 W/m -0,4 C 1,2 C 7,0 km/h (2 Bft)
01.03.2011 11:25 1,8 C 85 % 1036,5 hPa 0,0 l/m 8,7 km/h (2 Bft) O 80 0 min 0 W/m -0,4 C -0,4 C 8,7 km/h (2 Bft)
01.03.2011 11:30 1,9 C 85 % 1036,5 hPa 0,0 l/m 1,3 km/h (1 Bft) NO 40 0 min 0 W/m -0,3 C 1,9 C 1,3 km/h (1 Bft)
01.03.2011 11:35 2,3 C 85 % 1036,5 hPa 0,0 l/m 9,8 km/h (2 Bft) NO 45 0 min 0 W/m 0,0 C -0,8 C 9,8 km/h (2 Bft)
01.03.2011 11:41 2,3 C 84 % 1036,5 hPa 0,0 l/m 7,4 km/h (2 Bft) NO 50 0 min 0 W/m -0,1 C 1,3 C 7,4 km/h (2 Bft)
01.03.2011 11:46 2,2 C 83 % 1036,5 hPa 0,0 l/m 6,1 km/h (2 Bft) NO 55 0 min 0 W/m -0,4 C 2,2 C 6,1 km/h (2 Bft)
01.03.2011 11:50 2,2 C 83 % 1036,5 hPa 0,0 l/m 4,9 km/h (1 Bft) NO 35 0 min 0 W/m -0,4 C 2,2 C 4,9 km/h (1 Bft)
01.03.2011 11:55 2,2 C 83 % 1036,5 hPa 0,0 l/m 9,8 km/h (2 Bft) O-NO 65 0 min 0 W/m -0,4 C -0,9 C 9,8 km/h (2 Bft)
01.03.2011 12:00 2,1 C 83 % 1036,5 hPa 0,0 l/m 9,6 km/h (2 Bft) O-NO 65 0 min 0 W/m -0,5 C -0,8 C 9,6 km/h (2 Bft)
01.03.2011 12:06 2,1 C 83 % 1036,5 hPa 0,0 l/m 8,4 km/h (2 Bft) NO 50 0 min 0 W/m -0,5 C 0,2 C 8,4 km/h (2 Bft)
01.03.2011 12:11 2,2 C 83 % 1036,5 hPa 0,0 l/m 9,4 km/h (2 Bft) NO 45 0 min 0 W/m -0,4 C -0,5 C 9,4 km/h (2 Bft)
01.03.2011 12:15 2,2 C 83 % 1037,5 hPa 0,0 l/m 12,4 km/h (2 Bft) O-NO 70 0 min 0 W/m -0,4 C -2,7 C 12,4 km/h (2 Bft)
01.03.2011 12:20 2,2 C 83 % 1037,5 hPa 0,0 l/m 7,5 km/h (2 Bft) O-NO 60 0 min 0 W/m -0,4 C 1,1 C 7,5 km/h (2 Bft)
01.03.2011 12:25 2,3 C 83 % 1037,5 hPa 0,0 l/m 0,6 km/h (0 Bft) O-NO 75 0 min 0 W/m -0,3 C 2,3 C 0,6 km/h (0 Bft)
01.03.2011 12:30 2,3 C 83 % 1037,5 hPa 0,0 l/m 1,0 km/h (0 Bft) O-NO 75 0 min 0 W/m -0,3 C 2,3 C 1,0 km/h (0 Bft)
01.03.2011 12:36 2,4 C 83 % 1037,5 hPa 0,0 l/m 9,2 km/h (2 Bft) O-NO 75 0 min 0 W/m -0,2 C -0,2 C 9,2 km/h (2 Bft)
01.03.2011 12:41 2,4 C 83 % 1037,5 hPa 0,0 l/m 11,0 km/h (2 Bft) O 80 0 min 0 W/m -0,2 C -1,5 C 11,0 km/h (2 Bft)
01.03.2011 12:46 2,5 C 83 % 1037,5 hPa 0,0 l/m 6,9 km/h (2 Bft) NO 35 0 min 0 W/m -0,1 C 2,0 C 6,9 km/h (2 Bft)
01.03.2011 12:50 2,6 C 82 % 1036,5 hPa 0,0 l/m 8,8 km/h (2 Bft) O-NO 60 0 min 0 W/m -0,2 C 0,4 C 8,8 km/h (2 Bft)
01.03.2011 12:55 2,6 C 82 % 1036,5 hPa 0,0 l/m 7,4 km/h (2 Bft) O-NO 60 0 min 0 W/m -0,2 C 1,6 C 7,4 km/h (2 Bft)
01.03.2011 13:00 2,7 C 82 % 1036,5 hPa 0,0 l/m 10,8 km/h (2 Bft) O-NO 65 0 min 0 W/m -0,1 C -1,1 C 10,8 km/h (2 Bft)
01.03.2011 13:06 2,7 C 82 % 1036,5 hPa 0,0 l/m 8,3 km/h (2 Bft) O-NO 65 0 min 0 W/m -0,1 C 0,9 C 8,3 km/h (2 Bft)
01.03.2011 13:11 2,7 C 82 % 1037,5 hPa 0,0 l/m 8,1 km/h (2 Bft) NO 50 0 min 0 W/m -0,1 C 1,1 C 8,1 km/h (2 Bft)
01.03.2011 13:15 2,6 C 82 % 1037,5 hPa 0,0 l/m 12,7 km/h (3 Bft) NO 50 0 min 0 W/m -0,2 C -2,5 C 12,7 km/h (3 Bft)
01.03.2011 13:20 2,6 C 82 % 1037,5 hPa 0,0 l/m 10,0 km/h (2 Bft) O-NO 65 0 min 0 W/m -0,2 C -0,6 C 10,0 km/h (2 Bft)
01.03.2011 13:25 2,6 C 82 % 1037,5 hPa 0,0 l/m 6,7 km/h (2 Bft) O-NO 60 0 min 0 W/m -0,2 C 2,3 C 6,7 km/h (2 Bft)
01.03.2011 13:30 2,6 C 81 % 1037,5 hPa 0,0 l/m 10,8 km/h (2 Bft) O-NO 60 0 min 0 W/m -0,3 C -1,2 C 10,8 km/h (2 Bft)
01.03.2011 13:36 2,5 C 81 % 1037,5 hPa 0,0 l/m 8,2 km/h (2 Bft) NO 45 0 min 0 W/m -0,4 C 0,8 C 8,2 km/h (2 Bft)
01.03.2011 13:41 2,3 C 82 % 1037,5 hPa 0,0 l/m 8,9 km/h (2 Bft) O-NO 60 0 min 0 W/m -0,4 C -0,0 C 8,9 km/h (2 Bft)
01.03.2011 13:46 2,3 C 82 % 1037,5 hPa 0,0 l/m 13,0 km/h (3 Bft) O-NO 65 0 min 0 W/m -0,4 C -3,0 C 13,0 km/h (3 Bft)
01.03.2011 13:50 2,3 C 82 % 1037,5 hPa 0,0 l/m 11,1 km/h (2 Bft) O-NO 65 0 min 0 W/m -0,4 C -1,7 C 11,1 km/h (2 Bft)
01.03.2011 13:55 2,2 C 83 % 1037,5 hPa 0,0 l/m 8,9 km/h (2 Bft) NO 40 0 min 0 W/m -0,4 C -0,1 C 8,9 km/h (2 Bft)
01.03.2011 14:00 2,2 C 83 % 1037,5 hPa 0,0 l/m 11,2 km/h (2 Bft) O-NO 60 0 min 0 W/m -0,4 C -1,9 C 11,2 km/h (2 Bft)
01.03.2011 14:06 2,3 C 83 % 1037,5 hPa 0,0 l/m 12,9 km/h (3 Bft) NO 50 0 min 0 W/m -0,3 C -2,9 C 12,9 km/h (3 Bft)
01.03.2011 14:10 2,3 C 83 % 1037,5 hPa 0,0 l/m 11,1 km/h (2 Bft) NO 35 0 min 0 W/m -0,3 C -1,7 C 11,1 km/h (2 Bft)
01.03.2011 14:15 2,2 C 83 % 1037,5 hPa 0,0 l/m 15,7 km/h (3 Bft) O-NO 65 0 min 0 W/m -0,4 C -4,7 C 15,7 km/h (3 Bft)
01.03.2011 14:20 2,2 C 83 % 1037,5 hPa 0,0 l/m 12,0 km/h (2 Bft) NO 55 0 min 0 W/m -0,4 C -2,5 C 12,0 km/h (2 Bft)
01.03.2011 14:25 2,3 C 83 % 1037,5 hPa 0,0 l/m 8,5 km/h (2 Bft) O-NO 65 0 min 0 W/m -0,3 C 0,3 C 8,5 km/h (2 Bft)
01.03.2011 14:30 2,3 C 83 % 1037,5 hPa 0,0 l/m 12,3 km/h (2 Bft) NO 55 0 min 0 W/m -0,3 C -2,6 C 12,3 km/h (2 Bft)
01.03.2011 14:36 2,3 C 83 % 1037,5 hPa 0,0 l/m 6,3 km/h (2 Bft) O-NO 60 0 min 0 W/m -0,3 C 2,3 C 6,3 km/h (2 Bft)
01.03.2011 14:41 2,3 C 83 % 1037,5 hPa 0,0 l/m 11,4 km/h (2 Bft) NO 45 0 min 0 W/m -0,3 C -1,9 C 11,4 km/h (2 Bft)
01.03.2011 14:45 2,3 C 83 % 1037,5 hPa 0,0 l/m 8,1 km/h (2 Bft) NO 50 0 min 0 W/m -0,3 C 0,7 C 8,1 km/h (2 Bft)
01.03.2011 14:50 2,4 C 83 % 1037,5 hPa 0,0 l/m 10,4 km/h (2 Bft) O-NO 65 0 min 0 W/m -0,2 C -1,1 C 10,4 km/h (2 Bft)
01.03.2011 14:55 2,4 C 83 % 1037,5 hPa 0,0 l/m 7,9 km/h (2 Bft) O-NO 60 0 min 0 W/m -0,2 C 1,0 C 7,9 km/h (2 Bft)
01.03.2011 15:00 2,4 C 83 % 1037,5 hPa 0,0 l/m 8,7 km/h (2 Bft) O-NO 65 0 min 0 W/m -0,2 C 0,3 C 8,7 km/h (2 Bft)
01.03.2011 15:06 2,3 C 83 % 1037,5 hPa 0,0 l/m 12,8 km/h (3 Bft) NO 55 0 min 0 W/m -0,3 C -2,9 C 12,8 km/h (3 Bft)
01.03.2011 15:10 2,3 C 83 % 1037,5 hPa 0,0 l/m 7,8 km/h (2 Bft) NO 55 0 min 0 W/m -0,3 C 1,0 C 7,8 km/h (2 Bft)
01.03.2011 15:15 2,3 C 83 % 1037,5 hPa 0,0 l/m 6,1 km/h (2 Bft) O-NO 60 0 min 0 W/m -0,3 C 2,3 C 6,1 km/h (2 Bft)
01.03.2011 15:20 2,4 C 83 % 1037,5 hPa 0,0 l/m 13,8 km/h (3 Bft) O-NO 70 0 min 0 W/m -0,2 C -3,4 C 13,8 km/h (3 Bft)
01.03.2011 15:25 2,3 C 83 % 1037,5 hPa 0,0 l/m 12,3 km/h (2 Bft) O-NO 65 0 min 0 W/m -0,3 C -2,6 C 12,3 km/h (2 Bft)
01.03.2011 15:31 2,3 C 83 % 1037,5 hPa 0,0 l/m 9,8 km/h (2 Bft) O 85 0 min 0 W/m -0,3 C -0,8 C 9,8 km/h (2 Bft)
01.03.2011 15:36 2,3 C 83 % 1037,5 hPa 0,0 l/m 10,5 km/h (2 Bft) O 80 0 min 0 W/m -0,3 C -1,3 C 10,5 km/h (2 Bft)
01.03.2011 15:40 2,3 C 83 % 1037,5 hPa 0,0 l/m 10,0 km/h (2 Bft) O-NO 60 0 min 0 W/m -0,3 C -0,9 C 10,0 km/h (2 Bft)
01.03.2011 15:45 2,2 C 83 % 1037,5 hPa 0,0 l/m 9,5 km/h (2 Bft) O-NO 65 0 min 0 W/m -0,4 C -0,6 C 9,5 km/h (2 Bft)
01.03.2011 15:50 2,2 C 83 % 1037,5 hPa 0,0 l/m 9,5 km/h (2 Bft) O-NO 65 0 min 0 W/m -0,4 C -0,6 C 9,5 km/h (2 Bft)
01.03.2011 15:55 2,2 C 83 % 1037,5 hPa 0,0 l/m 7,2 km/h (2 Bft) NO 50 0 min 0 W/m -0,4 C 1,4 C 7,2 km/h (2 Bft)
01.03.2011 16:01 2,1 C 83 % 1037,5 hPa 0,0 l/m 9,7 km/h (2 Bft) O-NO 60 0 min 0 W/m -0,5 C -0,9 C 9,7 km/h (2 Bft)
01.03.2011 16:05 2,1 C 83 % 1037,5 hPa 0,0 l/m 12,0 km/h (2 Bft) O-NO 70 0 min 0 W/m -0,5 C -2,6 C 12,0 km/h (2 Bft)
01.03.2011 16:10 2,0 C 83 % 1037,5 hPa 0,0 l/m 11,1 km/h (2 Bft) O-NO 60 0 min 0 W/m -0,6 C -2,1 C 11,1 km/h (2 Bft)
01.03.2011 16:15 2,0 C 83 % 1037,5 hPa 0,0 l/m 5,6 km/h (2 Bft) NO 45 0 min 0 W/m -0,6 C 2,0 C 5,6 km/h (2 Bft)
01.03.2011 16:20 1,9 C 83 % 1037,5 hPa 0,0 l/m 14,6 km/h (3 Bft) O-NO 65 0 min 0 W/m -0,7 C -4,4 C 14,6 km/h (3 Bft)
01.03.2011 16:26 1,9 C 83 % 1037,5 hPa 0,0 l/m 10,0 km/h (2 Bft) NO 55 0 min 0 W/m -0,7 C -1,4 C 10,0 km/h (2 Bft)
01.03.2011 16:31 1,9 C 84 % 1037,5 hPa 0,0 l/m 9,4 km/h (2 Bft) NO 55 0 min 0 W/m -0,5 C -0,9 C 9,4 km/h (2 Bft)
01.03.2011 16:35 1,8 C 84 % 1037,5 hPa 0,0 l/m 11,0 km/h (2 Bft) O-NO 65 0 min 0 W/m -0,6 C -2,2 C 11,0 km/h (2 Bft)
01.03.2011 16:40 1,7 C 84 % 1037,5 hPa 0,0 l/m 17,1 km/h (3 Bft) O-NO 60 0 min 0 W/m -0,7 C -6,1 C 17,1 km/h (3 Bft)
01.03.2011 16:45 1,5 C 84 % 1037,5 hPa 0,0 l/m 7,8 km/h (2 Bft) NO 55 0 min 0 W/m -0,9 C 0,1 C 7,8 km/h (2 Bft)
01.03.2011 16:50 1,5 C 84 % 1037,5 hPa 0,0 l/m 12,9 km/h (3 Bft) NO 45 0 min 0 W/m -0,9 C -3,9 C 12,9 km/h (3 Bft)
01.03.2011 16:56 1,3 C 84 % 1037,5 hPa 0,0 l/m 13,3 km/h (3 Bft) NO 55 0 min 0 W/m -1,1 C -4,4 C 13,3 km/h (3 Bft)
01.03.2011 17:01 1,2 C 84 % 1037,5 hPa 0,0 l/m 14,5 km/h (3 Bft) O-NO 60 0 min 0 W/m -1,2 C -5,2 C 14,5 km/h (3 Bft)
01.03.2011 17:05 1,2 C 84 % 1037,5 hPa 0,0 l/m 12,9 km/h (3 Bft) NO 50 0 min 0 W/m -1,2 C -4,2 C 12,9 km/h (3 Bft)
01.03.2011 17:10 1,2 C 85 % 1037,5 hPa 0,0 l/m 17,2 km/h (3 Bft) O-NO 75 0 min 0 W/m -1,0 C -6,7 C 17,2 km/h (3 Bft)
01.03.2011 17:16 1,2 C 85 % 1037,5 hPa 0,0 l/m 16,0 km/h (3 Bft) O-NO 65 0 min 0 W/m -1,0 C -6,1 C 16,0 km/h (3 Bft)
01.03.2011 17:21 1,1 C 85 % 1037,5 hPa 0,0 l/m 14,4 km/h (3 Bft) NO 50 0 min 0 W/m -1,1 C -5,3 C 14,4 km/h (3 Bft)
01.03.2011 17:26 1,0 C 85 % 1037,5 hPa 0,0 l/m 12,1 km/h (2 Bft) O-NO 70 0 min 0 W/m -1,2 C -3,9 C 12,1 km/h (2 Bft)
01.03.2011 17:30 0,9 C 85 % 1037,5 hPa 0,0 l/m 12,3 km/h (2 Bft) O-NO 60 0 min 0 W/m -1,3 C -4,2 C 12,3 km/h (2 Bft)
01.03.2011 17:35 0,8 C 85 % 1037,5 hPa 0,0 l/m 13,2 km/h (3 Bft) O-NO 60 0 min 0 W/m -1,4 C -4,9 C 13,2 km/h (3 Bft)
01.03.2011 17:40 0,7 C 85 % 1037,5 hPa 0,0 l/m 9,7 km/h (2 Bft) O-NO 60 0 min 0 W/m -1,5 C -2,4 C 9,7 km/h (2 Bft)
01.03.2011 17:46 0,8 C 86 % 1037,5 hPa 0,0 l/m 21,3 km/h (4 Bft) O-NO 60 0 min 0 W/m -1,3 C -9,2 C 21,3 km/h (4 Bft)
01.03.2011 17:51 0,8 C 86 % 1037,5 hPa 0,0 l/m 12,8 km/h (3 Bft) O 80 0 min 0 W/m -1,3 C -4,6 C 12,8 km/h (3 Bft)
01.03.2011 17:56 0,7 C 86 % 1038,5 hPa 0,0 l/m 8,9 km/h (2 Bft) O-NO 60 0 min 0 W/m -1,4 C -1,7 C 8,9 km/h (2 Bft)
01.03.2011 18:00 0,7 C 86 % 1038,5 hPa 0,0 l/m 10,3 km/h (2 Bft) O-NO 60 0 min 0 W/m -1,4 C -2,9 C 10,3 km/h (2 Bft)
01.03.2011 18:05 0,7 C 87 % 1038,5 hPa 0,0 l/m 16,1 km/h (3 Bft) O 80 0 min 0 W/m -1,2 C -6,8 C 16,1 km/h (3 Bft)
01.03.2011 18:11 0,7 C 87 % 1038,5 hPa 0,0 l/m 19,2 km/h (3 Bft) O 95 0 min 0 W/m -1,2 C -8,4 C 19,2 km/h (3 Bft)
01.03.2011 18:16 0,8 C 87 % 1038,5 hPa 0,0 l/m 17,3 km/h (3 Bft) O 80 0 min 0 W/m -1,1 C -7,3 C 17,3 km/h (3 Bft)
01.03.2011 18:20 0,7 C 87 % 1038,5 hPa 0,0 l/m 23,9 km/h (4 Bft) O 85 0 min 0 W/m -1,2 C -10,4 C 23,9 km/h (4 Bft)
01.03.2011 18:25 0,7 C 87 % 1038,5 hPa 0,0 l/m 17,0 km/h (3 Bft) O-NO 65 0 min 0 W/m -1,2 C -7,3 C 17,0 km/h (3 Bft)
01.03.2011 18:30 0,7 C 87 % 1038,5 hPa 0,0 l/m 19,5 km/h (3 Bft) O 80 0 min 0 W/m -1,2 C -8,5 C 19,5 km/h (3 Bft)
01.03.2011 18:35 0,7 C 87 % 1038,5 hPa 0,0 l/m 15,1 km/h (3 Bft) O-NO 75 0 min 0 W/m -1,2 C -6,2 C 15,1 km/h (3 Bft)
01.03.2011 18:41 0,7 C 87 % 1038,5 hPa 0,0 l/m 8,4 km/h (2 Bft) O-NO 70 0 min 0 W/m -1,2 C -1,3 C 8,4 km/h (2 Bft)
01.03.2011 18:46 0,7 C 87 % 1038,5 hPa 0,0 l/m 14,6 km/h (3 Bft) O 95 0 min 0 W/m -1,2 C -5,9 C 14,6 km/h (3 Bft)
01.03.2011 18:50 0,7 C 87 % 1038,5 hPa 0,0 l/m 14,8 km/h (3 Bft) NO 50 0 min 0 W/m -1,2 C -6,0 C 14,8 km/h (3 Bft)
01.03.2011 18:55 0,7 C 88 % 1038,5 hPa 0,0 l/m 11,2 km/h (2 Bft) O-NO 65 0 min 0 W/m -1,1 C -3,6 C 11,2 km/h (2 Bft)
01.03.2011 19:00 0,7 C 88 % 1038,5 hPa 0,0 l/m 14,9 km/h (3 Bft) O-NO 60 0 min 0 W/m -1,1 C -6,1 C 14,9 km/h (3 Bft)
01.03.2011 19:06 0,7 C 88 % 1038,5 hPa 0,0 l/m 17,8 km/h (3 Bft) O 95 0 min 0 W/m -1,1 C -7,7 C 17,8 km/h (3 Bft)
01.03.2011 19:10 0,6 C 87 % 1038,5 hPa 0,0 l/m 13,2 km/h (3 Bft) O-NO 75 0 min 0 W/m -1,3 C -5,1 C 13,2 km/h (3 Bft)
01.03.2011 19:15 0,6 C 87 % 1038,5 hPa 0,0 l/m 14,9 km/h (3 Bft) O 80 0 min 0 W/m -1,3 C -6,2 C 14,9 km/h (3 Bft)
01.03.2011 19:20 0,7 C 88 % 1038,5 hPa 0,0 l/m 14,7 km/h (3 Bft) O 90 0 min 0 W/m -1,1 C -6,0 C 14,7 km/h (3 Bft)
01.03.2011 19:25 0,6 C 87 % 1038,5 hPa 0,0 l/m 10,9 km/h (2 Bft) O-NO 65 0 min 0 W/m -1,3 C -3,5 C 10,9 km/h (2 Bft)
01.03.2011 19:31 0,6 C 87 % 1038,5 hPa 0,0 l/m 15,1 km/h (3 Bft) O 80 0 min 0 W/m -1,3 C -6,3 C 15,1 km/h (3 Bft)
01.03.2011 19:36 0,6 C 87 % 1038,5 hPa 0,0 l/m 11,9 km/h (2 Bft) O 90 0 min 0 W/m -1,3 C -4,2 C 11,9 km/h (2 Bft)
01.03.2011 19:40 0,7 C 88 % 1038,5 hPa 0,0 l/m 12,6 km/h (3 Bft) O 90 0 min 0 W/m -1,1 C -4,6 C 12,6 km/h (3 Bft)
01.03.2011 19:45 0,7 C 88 % 1038,5 hPa 0,0 l/m 13,1 km/h (3 Bft) O-NO 65 0 min 0 W/m -1,1 C -4,9 C 13,1 km/h (3 Bft)
01.03.2011 19:50 0,7 C 88 % 1038,5 hPa 0,0 l/m 12,2 km/h (2 Bft) O-NO 70 0 min 0 W/m -1,1 C -4,3 C 12,2 km/h (2 Bft)
01.03.2011 19:55 0,7 C 88 % 1038,5 hPa 0,0 l/m 11,6 km/h (2 Bft) O 80 0 min 0 W/m -1,1 C -3,9 C 11,6 km/h (2 Bft)
01.03.2011 20:01 0,7 C 88 % 1038,5 hPa 0,0 l/m 14,6 km/h (3 Bft) O-NO 70 0 min 0 W/m -1,1 C -5,9 C 14,6 km/h (3 Bft)
01.03.2011 20:05 0,7 C 88 % 1038,5 hPa 0,0 l/m 7,9 km/h (2 Bft) O 80 0 min 0 W/m -1,1 C -0,8 C 7,9 km/h (2 Bft)
01.03.2011 20:10 0,7 C 88 % 1038,5 hPa 0,0 l/m 9,9 km/h (2 Bft) O 80 0 min 0 W/m -1,1 C -2,6 C 9,9 km/h (2 Bft)
01.03.2011 20:15 0,8 C 88 % 1038,5 hPa 0,0 l/m 6,8 km/h (2 Bft) O-NO 70 0 min 0 W/m -1,0 C 0,4 C 6,8 km/h (2 Bft)
01.03.2011 20:20 0,8 C 88 % 1038,5 hPa 0,0 l/m 11,7 km/h (2 Bft) O-NO 75 0 min 0 W/m -1,0 C -3,9 C 11,7 km/h (2 Bft)
01.03.2011 20:26 0,8 C 87 % 1038,5 hPa 0,0 l/m 13,6 km/h (3 Bft) O 90 0 min 0 W/m -1,1 C -5,2 C 13,6 km/h (3 Bft)
01.03.2011 20:31 0,8 C 88 % 1038,5 hPa 0,0 l/m 12,1 km/h (2 Bft) O-NO 65 0 min 0 W/m -1,0 C -4,2 C 12,1 km/h (2 Bft)
01.03.2011 20:35 0,8 C 88 % 1038,5 hPa 0,0 l/m 9,9 km/h (2 Bft) O 80 0 min 0 W/m -1,0 C -2,5 C 9,9 km/h (2 Bft)
01.03.2011 20:40 0,8 C 88 % 1038,5 hPa 0,0 l/m 15,1 km/h (3 Bft) O 80 0 min 0 W/m -1,0 C -6,1 C 15,1 km/h (3 Bft)
01.03.2011 20:45 0,8 C 88 % 1038,5 hPa 0,0 l/m 11,2 km/h (2 Bft) O-NO 75 0 min 0 W/m -1,0 C -3,5 C 11,2 km/h (2 Bft)
01.03.2011 20:51 0,8 C 88 % 1038,5 hPa 0,0 l/m 10,6 km/h (2 Bft) O-NO 65 0 min 0 W/m -1,0 C -3,0 C 10,6 km/h (2 Bft)
01.03.2011 20:56 0,9 C 88 % 1038,5 hPa 0,0 l/m 9,5 km/h (2 Bft) O-NO 60 0 min 0 W/m -0,9 C -2,0 C 9,5 km/h (2 Bft)
01.03.2011 21:01 0,9 C 87 % 1038,5 hPa 0,0 l/m 11,3 km/h (2 Bft) O-NO 70 0 min 0 W/m -1,0 C -3,5 C 11,3 km/h (2 Bft)
01.03.2011 21:05 0,8 C 87 % 1038,5 hPa 0,0 l/m 14,2 km/h (3 Bft) O-NO 75 0 min 0 W/m -1,1 C -5,5 C 14,2 km/h (3 Bft)
01.03.2011 21:10 0,8 C 87 % 1038,5 hPa 0,0 l/m 10,7 km/h (2 Bft) O-NO 60 0 min 0 W/m -1,1 C -3,1 C 10,7 km/h (2 Bft)
01.03.2011 21:16 0,8 C 87 % 1038,5 hPa 0,0 l/m 13,7 km/h (3 Bft) O-NO 60 0 min 0 W/m -1,1 C -5,2 C 13,7 km/h (3 Bft)
01.03.2011 21:21 0,9 C 88 % 1038,5 hPa 0,0 l/m 14,8 km/h (3 Bft) O 95 0 min 0 W/m -0,9 C -5,8 C 14,8 km/h (3 Bft)
01.03.2011 21:25 0,9 C 87 % 1038,5 hPa 0,0 l/m 12,1 km/h (2 Bft) O 80 0 min 0 W/m -1,0 C -4,0 C 12,1 km/h (2 Bft)
01.03.2011 21:30 0,9 C 87 % 1038,5 hPa 0,0 l/m 21,2 km/h (4 Bft) O-NO 75 0 min 0 W/m -1,0 C -9,0 C 21,2 km/h (4 Bft)
01.03.2011 21:35 0,9 C 87 % 1038,5 hPa 0,0 l/m 17,5 km/h (3 Bft) O-NO 70 0 min 0 W/m -1,0 C -7,3 C 17,5 km/h (3 Bft)
01.03.2011 21:41 0,8 C 87 % 1038,5 hPa 0,0 l/m 19,3 km/h (3 Bft) O 80 0 min 0 W/m -1,1 C -8,3 C 19,3 km/h (3 Bft)
01.03.2011 21:46 0,8 C 87 % 1038,5 hPa 0,0 l/m 15,3 km/h (3 Bft) O 80 0 min 0 W/m -1,1 C -6,2 C 15,3 km/h (3 Bft)
01.03.2011 21:50 0,8 C 87 % 1038,5 hPa 0,0 l/m 17,1 km/h (3 Bft) O 85 0 min 0 W/m -1,1 C -7,2 C 17,1 km/h (3 Bft)
01.03.2011 21:55 0,8 C 88 % 1038,5 hPa 0,0 l/m 11,1 km/h (2 Bft) NO 50 0 min 0 W/m -1,0 C -3,4 C 11,1 km/h (2 Bft)
01.03.2011 22:00 0,8 C 88 % 1038,5 hPa 0,0 l/m 8,0 km/h (2 Bft) O-NO 75 0 min 0 W/m -1,0 C -0,8 C 8,0 km/h (2 Bft)
01.03.2011 22:06 0,8 C 87 % 1038,5 hPa 0,0 l/m 11,3 km/h (2 Bft) NO 55 0 min 0 W/m -1,1 C -3,6 C 11,3 km/h (2 Bft)
01.03.2011 22:10 0,8 C 87 % 1038,5 hPa 0,0 l/m 11,1 km/h (2 Bft) O-NO 65 0 min 0 W/m -1,1 C -3,4 C 11,1 km/h (2 Bft)
01.03.2011 22:15 0,8 C 87 % 1038,5 hPa 0,0 l/m 17,2 km/h (3 Bft) O-NO 65 0 min 0 W/m -1,1 C -7,2 C 17,2 km/h (3 Bft)
01.03.2011 22:20 0,8 C 87 % 1039,5 hPa 0,0 l/m 8,7 km/h (2 Bft) O-NO 65 0 min 0 W/m -1,1 C -1,5 C 8,7 km/h (2 Bft)
01.03.2011 22:25 0,9 C 87 % 1038,5 hPa 0,0 l/m 14,3 km/h (3 Bft) O-NO 70 0 min 0 W/m -1,0 C -5,5 C 14,3 km/h (3 Bft)
01.03.2011 22:31 0,9 C 87 % 1038,5 hPa 0,0 l/m 14,3 km/h (3 Bft) O-NO 70 0 min 0 W/m -1,0 C -5,5 C 14,3 km/h (3 Bft)
01.03.2011 22:36 0,8 C 87 % 1039,5 hPa 0,0 l/m 9,0 km/h (2 Bft) NO 50 0 min 0 W/m -1,1 C -1,7 C 9,0 km/h (2 Bft)
01.03.2011 22:40 0,8 C 87 % 1039,5 hPa 0,0 l/m 12,3 km/h (2 Bft) O-NO 65 0 min 0 W/m -1,1 C -4,3 C 12,3 km/h (2 Bft)
01.03.2011 22:45 0,8 C 87 % 1039,5 hPa 0,0 l/m 10,0 km/h (2 Bft) O-NO 70 0 min 0 W/m -1,1 C -2,6 C 10,0 km/h (2 Bft)
01.03.2011 22:50 0,8 C 87 % 1039,5 hPa 0,0 l/m 10,3 km/h (2 Bft) O-NO 70 0 min 0 W/m -1,1 C -2,8 C 10,3 km/h (2 Bft)
01.03.2011 22:56 0,9 C 87 % 1039,5 hPa 0,0 l/m 10,6 km/h (2 Bft) O-NO 70 0 min 0 W/m -1,0 C -2,9 C 10,6 km/h (2 Bft)
01.03.2011 23:01 0,8 C 87 % 1039,5 hPa 0,0 l/m 11,9 km/h (2 Bft) O-NO 60 0 min 0 W/m -1,1 C -4,0 C 11,9 km/h (2 Bft)
01.03.2011 23:05 0,8 C 87 % 1039,5 hPa 0,0 l/m 12,5 km/h (2 Bft) O-NO 65 0 min 0 W/m -1,1 C -4,4 C 12,5 km/h (2 Bft)
01.03.2011 23:10 0,7 C 87 % 1039,5 hPa 0,0 l/m 16,6 km/h (3 Bft) NO 55 0 min 0 W/m -1,2 C -7,0 C 16,6 km/h (3 Bft)
01.03.2011 23:16 0,7 C 87 % 1039,5 hPa 0,0 l/m 11,0 km/h (2 Bft) O-NO 65 0 min 0 W/m -1,2 C -3,5 C 11,0 km/h (2 Bft)
01.03.2011 23:21 0,7 C 87 % 1039,5 hPa 0,0 l/m 10,9 km/h (2 Bft) O-NO 75 0 min 0 W/m -1,2 C -3,4 C 10,9 km/h (2 Bft)
01.03.2011 23:25 0,7 C 88 % 1039,5 hPa 0,0 l/m 13,9 km/h (3 Bft) O-NO 60 0 min 0 W/m -1,1 C -5,5 C 13,9 km/h (3 Bft)
01.03.2011 23:30 0,6 C 87 % 1039,5 hPa 0,0 l/m 13,9 km/h (3 Bft) O-NO 70 0 min 0 W/m -1,3 C -5,6 C 13,9 km/h (3 Bft)
01.03.2011 23:35 0,6 C 87 % 1039,5 hPa 0,0 l/m 15,0 km/h (3 Bft) O-NO 75 0 min 0 W/m -1,3 C -6,3 C 15,0 km/h (3 Bft)
01.03.2011 23:40 0,6 C 87 % 1039,5 hPa 0,0 l/m 14,6 km/h (3 Bft) O-NO 65 0 min 0 W/m -1,3 C -6,0 C 14,6 km/h (3 Bft)
01.03.2011 23:46 0,6 C 87 % 1039,5 hPa 0,0 l/m 9,4 km/h (2 Bft) NO 50 0 min 0 W/m -1,3 C -2,3 C 9,4 km/h (2 Bft)
01.03.2011 23:51 0,5 C 87 % 1039,5 hPa 0,0 l/m 11,1 km/h (2 Bft) NO 55 0 min 0 W/m -1,4 C -3,8 C 11,1 km/h (2 Bft)
01.03.2011 23:55 0,5 C 87 % 1039,5 hPa 0,0 l/m 9,6 km/h (2 Bft) O-NO 60 0 min 0 W/m -1,4 C -2,6 C 9,6 km/h (2 Bft)
_ Min-Zeit 23:51 13:30 00:01 - 00:16 - - - - 17:40 18:20 00:16
Minimum _ 0,5 C 81 % 1031,5 hPa - 0,0 km/h (0 Bft) - - - - -1,5 C -10,4 C 0,0 km/h (0 Bft)
_ Max-Zeit 13:00 18:55 22:20 00:01 18:20 - - 00:01 00:01 11:35 13:25 18:20
Maximum _ 2,7 C 88 % 1039,5 hPa 0,0 l/m 23,9 km/h
O (4 Bft)
- - 0 min 0 W/m 0,0 C 2,3 C 23,9 km/h
O (4 Bft)
Durchschnitt _ 1,4 C 85 % 1036,0 hPa #0,0 l/m 8,2 km/h (2 Bft) O-NO - #0 min. 0 W/m -0,9 C -1,2 C 8,2 km/h (2 Bft)
copyright by Holger Just